SOHO CELIAS Proton Monitor
Solar Wind Parameters for Carrington Rotation 1958 (hour averages)


Listed Parameters:

Measurement time (Year, Day of Year, Hour, Minute, Second)
Proton speed [km/sec]
Proton density [protons per cubic centimeter]
Most probable proton thermal speed [km/sec]
Arrival direction [degrees from north-south, with + meaning FROM the south).
(SPEED=-1 means NOT AVAILABLE)

SOHO spacecraft coordinates: based on SOHO PRE orbit files
GSE X, Y, Z [Earth Radii] 1 RE == 6378 km
Heliocentric Range [106 km],
Heliographic Latitude and Longitude [deg].

FORMAT=(1X,I2,1X,I3,1X,I2,1X,I2,1X,I2,F7.1,3F7.2,3X,3F7.1,F7.1,F7.2,F8.2)



                              CELIAS/MTOF/PM DATA                      SOHO ORBIT DATA              
 InSitu_Start__Time       [km/s]  [cm-3] [km/s]  [deg]      [Re]   [Re]   [Re]  [Mkm]  [deg]  [deg]
 YY MON DY DOY:HH:MM:SS   SPEED     Np     Vth    N/S      GSE_X  GSE_Y  GSE_Z  RANGE  HGLAT  HGLONG
 00 JAN  1   1:15:00:00     686    3.3      63   -0.8      209.6 -100.7    1.2  145.8   -3.1     0.0
 00 JAN  1   1:16:00:00     732    3.1      64    0.0      209.5 -100.6    1.2  145.8   -3.1   359.5
 00 JAN  1   1:17:00:00     694    3.0      66   -0.2      209.5 -100.6    1.2  145.8   -3.1   358.9
 00 JAN  1   1:18:00:00     766    2.5      57    1.0      209.4 -100.6    1.3  145.8   -3.1   358.4
 00 JAN  1   1:19:00:00     774    2.6      60    0.7      209.4 -100.5    1.3  145.8   -3.1   357.8
 00 JAN  1   1:20:00:00     763    2.6      63    0.6      209.4 -100.5    1.3  145.8   -3.1   357.3
 00 JAN  1   1:21:00:00     760    2.5      62    0.7      209.3 -100.5    1.3  145.8   -3.1   356.7
 00 JAN  1   1:22:00:00     750    2.8      62    0.4      209.3 -100.4    1.4  145.8   -3.1   356.2
 00 JAN  1   1:23:00:00     706    3.0      66    0.4      209.2 -100.4    1.4  145.8   -3.1   355.6
 00 JAN  2   2:00:00:00     710    3.1      65   -0.4      209.2 -100.3    1.4  145.8   -3.1   355.1
 00 JAN  2   2:01:00:00     695    3.2      64   -0.9      209.2 -100.3    1.5  145.8   -3.1   354.5
 00 JAN  2   2:02:00:00     702    3.4      65    2.3      209.1 -100.2    1.5  145.8   -3.1   354.0
 00 JAN  2   2:03:00:00     689    3.2      63    0.0      209.1 -100.2    1.5  145.8   -3.1   353.4
 00 JAN  2   2:04:00:00     710    3.1      64    1.1      209.1 -100.2    1.5  145.8   -3.1   352.9
 00 JAN  2   2:05:00:00     703    3.5      63   -0.5      209.0 -100.1    1.6  145.8   -3.1   352.3
 00 JAN  2   2:06:00:00     686    3.6      62   -0.2      209.0 -100.1    1.6  145.8   -3.1   351.8
 00 JAN  2   2:07:00:00     705    3.1      63   -0.6      208.9 -100.0    1.6  145.8   -3.1   351.2
 00 JAN  2   2:08:00:00     702    3.0      63   -0.2      208.9 -100.0    1.7  145.8   -3.1   350.7
 00 JAN  2   2:09:00:00     701    3.2      62    0.9      208.9 -100.0    1.7  145.8   -3.1   350.1
 00 JAN  2   2:10:00:00     695    3.3      63    0.0      208.8  -99.9    1.7  145.8   -3.2   349.6
 00 JAN  2   2:11:00:00     665    3.0      62    0.1      208.8  -99.9    1.7  145.8   -3.2   349.0
 00 JAN  2   2:12:00:00     663    2.8      60    0.0      208.7  -99.8    1.8  145.8   -3.2   348.5
 00 JAN  2   2:13:00:00     673    2.8      61   -0.7      208.7  -99.8    1.8  145.8   -3.2   347.9
 00 JAN  2   2:14:00:00     667    2.7      61   -0.2      208.7  -99.7    1.8  145.8   -3.2   347.4
 00 JAN  2   2:15:00:00     674    2.1      61   -0.9      208.6  -99.7    1.8  145.8   -3.2   346.8
 00 JAN  2   2:16:00:00     662    2.4      60    1.0      208.6  -99.7    1.9  145.8   -3.2   346.3
 00 JAN  2   2:17:00:00     672    2.2      62   -0.8      208.6  -99.6    1.9  145.8   -3.2   345.7
 00 JAN  2   2:18:00:00     652    2.6      60    0.4      208.5  -99.6    1.9  145.8   -3.2   345.2
 00 JAN  2   2:19:00:00     646    2.7      60    0.3      208.5  -99.5    2.0  145.8   -3.2   344.6
 00 JAN  2   2:20:00:00     639    3.0      61    1.0      208.4  -99.5    2.0  145.8   -3.2   344.1
 00 JAN  2   2:21:00:00     661    2.4      60    1.5      208.4  -99.4    2.0  145.8   -3.2   343.5
 00 JAN  2   2:22:00:00     642    2.2      59   -0.4      208.4  -99.4    2.0  145.8   -3.2   343.0
 00 JAN  2   2:23:00:00     694    2.1      64    1.5      208.3  -99.3    2.1  145.8   -3.2   342.4
 00 JAN  3   3:00:00:00     665    2.4      59    0.9      208.3  -99.3    2.1  145.8   -3.2   341.9
 00 JAN  3   3:01:00:00     608    2.5      49    0.3      208.3  -99.2    2.1  145.8   -3.2   341.3
 00 JAN  3   3:02:00:00     617    2.7      51    1.1      208.2  -99.2    2.2  145.8   -3.2   340.8
 00 JAN  3   3:03:00:00     624    2.6      53    0.1      208.2  -99.1    2.2  145.8   -3.2   340.2
 00 JAN  3   3:04:00:00     605    2.6      51   -1.3      208.1  -99.1    2.2  145.8   -3.2   339.7
 00 JAN  3   3:05:00:00     611    2.4      54    0.1      208.1  -99.0    2.2  145.8   -3.2   339.1
 00 JAN  3   3:06:00:00     601    2.6      48   -0.1      208.1  -99.0    2.3  145.8   -3.2   338.6
 00 JAN  3   3:07:00:00     599    2.6      49    0.2      208.0  -99.0    2.3  145.8   -3.3   338.0
 00 JAN  3   3:08:00:00     604    2.4      54    0.2      208.0  -98.9    2.3  145.8   -3.3   337.5
 00 JAN  3   3:09:00:00     604    2.7      50   -0.2      208.0  -98.9    2.4  145.8   -3.3   336.9
 00 JAN  3   3:10:00:00     604    2.8      51   -0.5      207.9  -98.8    2.4  145.8   -3.3   336.4
 00 JAN  3   3:11:00:00     615    3.1      52   -0.7      207.9  -98.8    2.4  145.8   -3.3   335.8
 00 JAN  3   3:12:00:00     592    2.7      49   -0.3      207.8  -98.7    2.4  145.8   -3.3   335.3
 00 JAN  3   3:13:00:00     572    2.1      46   -0.9      207.8  -98.7    2.5  145.8   -3.3   334.7
 00 JAN  3   3:14:00:00     567    2.2      45   -0.8      207.8  -98.6    2.5  145.8   -3.3   334.2
 00 JAN  3   3:15:00:00     557    2.0      42   -1.3      207.7  -98.6    2.5  145.8   -3.3   333.6
 00 JAN  3   3:16:00:00     564    2.3      40   -0.6      207.7  -98.5    2.5  145.8   -3.3   333.1
 00 JAN  3   3:17:00:00     563    2.5      42   -0.9      207.7  -98.5    2.6  145.8   -3.3   332.5
 00 JAN  3   3:18:00:00     558    2.4      45    0.2      207.6  -98.4    2.6  145.8   -3.3   332.0
 00 JAN  3   3:19:00:00     578    2.6      49   -0.9      207.6  -98.4    2.6  145.8   -3.3   331.4
 00 JAN  3   3:20:00:00     588    2.7      50   -1.0      207.5  -98.3    2.7  145.8   -3.3   330.9
 00 JAN  3   3:21:00:00     586    2.6      52   -1.3      207.5  -98.2    2.7  145.8   -3.3   330.3
 00 JAN  3   3:22:00:00     591    2.6      61   -1.8      207.5  -98.2    2.7  145.8   -3.3   329.8
 00 JAN  3   3:23:00:00     598    2.8      57   -1.5      207.4  -98.1    2.7  145.8   -3.3   329.2
 00 JAN  4   4:00:00:00     594    2.6      53   -0.7      207.4  -98.1    2.8  145.8   -3.3   328.7
 00 JAN  4   4:01:00:00     597    2.5      49    0.0      207.4  -98.0    2.8  145.8   -3.3   328.1
 00 JAN  4   4:02:00:00     593    2.3      53   -0.5      207.3  -98.0    2.8  145.8   -3.3   327.6
 00 JAN  4   4:03:00:00     583    2.2      54   -1.5      207.3  -97.9    2.8  145.8   -3.3   327.0
 00 JAN  4   4:04:00:00     570    2.4      54    0.4      207.2  -97.9    2.9  145.8   -3.3   326.5
 00 JAN  4   4:05:00:00     624    1.9      54   -1.1      207.2  -97.8    2.9  145.8   -3.4   325.9
 00 JAN  4   4:06:00:00     603    2.1      50    1.0      207.2  -97.8    2.9  145.8   -3.4   325.3
 00 JAN  4   4:07:00:00     607    2.0      53    0.2      207.1  -97.7    3.0  145.8   -3.4   324.8
 00 JAN  4   4:08:00:00     631    3.3      55    2.4      207.1  -97.7    3.0  145.8   -3.4   324.2
 00 JAN  4   4:09:00:00     646    3.2      55    2.9      207.1  -97.6    3.0  145.8   -3.4   323.7
 00 JAN  4   4:10:00:00     612    2.8      50    1.3      207.0  -97.5    3.0  145.8   -3.4   323.1
 00 JAN  4   4:11:00:00     604    3.5      50    1.2      207.0  -97.5    3.1  145.8   -3.4   322.6
 00 JAN  4   4:12:00:00     603    3.6      48    0.7      206.9  -97.4    3.1  145.8   -3.4   322.0
 00 JAN  4   4:13:00:00     590    3.3      46   -1.3      206.9  -97.4    3.1  145.8   -3.4   321.5
 00 JAN  4   4:14:00:00     591    3.5      46    0.2      206.9  -97.3    3.2  145.8   -3.4   320.9
 00 JAN  4   4:15:00:00     583    3.2      44   -0.6      206.8  -97.3    3.2  145.8   -3.4   320.4
 00 JAN  4   4:16:00:00     572    2.8      46   -1.3      206.8  -97.2    3.2  145.8   -3.4   319.8
 00 JAN  4   4:17:00:00     554    2.3      48   -0.5      206.8  -97.2    3.2  145.8   -3.4   319.3
 00 JAN  4   4:18:00:00     539    2.2      46    0.0      206.7  -97.1    3.3  145.8   -3.4   318.7
 00 JAN  4   4:19:00:00     534    2.8      49    1.2      206.7  -97.0    3.3  145.8   -3.4   318.2
 00 JAN  4   4:20:00:00     543    3.1      47    2.0      206.6  -97.0    3.3  145.8   -3.4   317.6
 00 JAN  4   4:21:00:00     534    2.9      44    1.9      206.6  -96.9    3.3  145.8   -3.4   317.1
 00 JAN  4   4:22:00:00     507    3.2      41    2.2      206.6  -96.9    3.4  145.8   -3.4   316.5
 00 JAN  4   4:23:00:00     511    3.4      43    3.4      206.5  -96.8    3.4  145.8   -3.4   316.0
 00 JAN  5   5:00:00:00     508    3.1      44    2.5      206.5  -96.8    3.4  145.8   -3.4   315.4
 00 JAN  5   5:01:00:00     513    2.5      47    0.8      206.5  -96.7    3.5  145.8   -3.4   314.9
 00 JAN  5   5:02:00:00     500    3.6      39    1.1      206.4  -96.6    3.5  145.8   -3.5   314.3
 00 JAN  5   5:03:00:00     509    3.0      44   -1.9      206.4  -96.6    3.5  145.8   -3.5   313.8
 00 JAN  5   5:04:00:00     500    3.3      40    0.3      206.3  -96.5    3.5  145.8   -3.5   313.2
 00 JAN  5   5:05:00:00     519    3.4      43    0.4      206.3  -96.5    3.6  145.8   -3.5   312.7
 00 JAN  5   5:06:00:00     541    3.6      46    4.0      206.3  -96.4    3.6  145.8   -3.5   312.1
 00 JAN  5   5:07:00:00     514    3.5      43    0.9      206.2  -96.3    3.6  145.8   -3.5   311.6
 00 JAN  5   5:08:00:00     514    3.3      45   -1.3      206.2  -96.3    3.6  145.8   -3.5   311.0
 00 JAN  5   5:09:00:00     515    3.2      46    0.4      206.2  -96.2    3.7  145.8   -3.5   310.5
 00 JAN  5   5:10:00:00     516    3.1      46   -1.0      206.1  -96.2    3.7  145.8   -3.5   309.9
 00 JAN  5   5:11:00:00     524    3.0      47   -1.9      206.1  -96.1    3.7  145.8   -3.5   309.4
 00 JAN  5   5:12:00:00     507    3.0      42    0.3      206.1  -96.0    3.8  145.8   -3.5   308.8
 00 JAN  5   5:13:00:00     510    3.0      42    0.6      206.0  -96.0    3.8  145.8   -3.5   308.3
 00 JAN  5   5:14:00:00     525    3.0      44   -0.3      206.0  -95.9    3.8  145.8   -3.5   307.7
 00 JAN  5   5:15:00:00     526    3.0      46    1.5      205.9  -95.8    3.8  145.8   -3.5   307.2
 00 JAN  5   5:16:00:00     530    2.9      46    1.9      205.9  -95.8    3.9  145.8   -3.5   306.6
 00 JAN  5   5:17:00:00     531    3.2      49    2.7      205.9  -95.7    3.9  145.8   -3.5   306.1
 00 JAN  5   5:18:00:00     527    3.0      47    1.3      205.8  -95.7    3.9  145.8   -3.5   305.5
 00 JAN  5   5:19:00:00     541    2.9      48    1.3      205.8  -95.6    3.9  145.8   -3.5   305.0
 00 JAN  5   5:20:00:00     534    3.0      47    3.1      205.8  -95.5    4.0  145.8   -3.5   304.4
 00 JAN  5   5:21:00:00     523    3.2      48   -2.0      205.7  -95.5    4.0  145.8   -3.5   303.9
 00 JAN  5   5:22:00:00     517    3.2      46   -1.4      205.7  -95.4    4.0  145.8   -3.5   303.3
 00 JAN  5   5:23:00:00     509    3.5      43    1.0      205.6  -95.3    4.1  145.8   -3.5   302.8
 00 JAN  6   6:00:00:00     508    3.7      42    0.9      205.6  -95.3    4.1  145.8   -3.6   302.2
 00 JAN  6   6:01:00:00     523    3.9      45   -1.6      205.6  -95.2    4.1  145.8   -3.6   301.7
 00 JAN  6   6:02:00:00     527    3.7      45    1.4      205.5  -95.1    4.1  145.8   -3.6   301.1
 00 JAN  6   6:03:00:00     532    4.5      47    0.2      205.5  -95.1    4.2  145.8   -3.6   300.6
 00 JAN  6   6:04:00:00     529    5.1      47    2.0      205.5  -95.0    4.2  145.8   -3.6   300.0
 00 JAN  6   6:05:00:00     516    4.7      45   -1.5      205.4  -94.9    4.2  145.8   -3.6   299.5
 00 JAN  6   6:06:00:00     508    4.5      44   -2.1      205.4  -94.9    4.2  145.8   -3.6   298.9
 00 JAN  6   6:07:00:00     515    4.9      44   -1.5      205.4  -94.8    4.3  145.8   -3.6   298.4
 00 JAN  6   6:08:00:00     511    4.8      42    1.3      205.3  -94.8    4.3  145.8   -3.6   297.8
 00 JAN  6   6:09:00:00     515    5.7      43    0.9      205.3  -94.7    4.3  145.8   -3.6   297.3
 00 JAN  6   6:10:00:00     530    4.8      44   -1.9      205.2  -94.6    4.3  145.8   -3.6   296.7
 00 JAN  6   6:11:00:00     520    5.9      45   -1.4      205.2  -94.6    4.4  145.8   -3.6   296.2
 00 JAN  6   6:12:00:00     552    6.5      49   -0.2      205.2  -94.5    4.4  145.8   -3.6   295.6
 00 JAN  6   6:13:00:00     565    5.9      54   -0.1      205.1  -94.4    4.4  145.8   -3.6   295.1
 00 JAN  6   6:14:00:00     557    6.0      51   -0.1      205.1  -94.3    4.5  145.8   -3.6   294.5
 00 JAN  6   6:15:00:00     566    5.5      53    0.5      205.1  -94.3    4.5  145.8   -3.6   294.0
 00 JAN  6   6:16:00:00     572    5.7      56    1.9      205.0  -94.2    4.5  145.8   -3.6   293.4
 00 JAN  6   6:17:00:00     578    5.4      57   -0.2      205.0  -94.1    4.5  145.8   -3.6   292.9
 00 JAN  6   6:18:00:00     580    5.1      57    0.0      205.0  -94.1    4.6  145.8   -3.6   292.3
 00 JAN  6   6:19:00:00     567    5.5      58    2.2      204.9  -94.0    4.6  145.8   -3.6   291.8
 00 JAN  6   6:20:00:00     562    4.9      54    0.7      204.9  -93.9    4.6  145.8   -3.6   291.2
 00 JAN  6   6:21:00:00     551    4.9      52    0.3      204.8  -93.9    4.6  145.8   -3.6   290.7
 00 JAN  6   6:22:00:00     569    4.4      51   -0.2      204.8  -93.8    4.7  145.8   -3.7   290.1
 00 JAN  6   6:23:00:00     557    4.1      50    0.2      204.8  -93.7    4.7  145.8   -3.7   289.6
 00 JAN  7   7:00:00:00     562    5.0      53    2.2      204.7  -93.7    4.7  145.8   -3.7   289.0
 00 JAN  7   7:01:00:00      -1   -1.0      -1   99.0      204.7  -93.6    4.8  145.8   -3.7   288.5
 00 JAN  7   7:02:00:00      -1   -1.0      -1   99.0      204.7  -93.5    4.8  145.8   -3.7   287.9
 00 JAN  7   7:03:00:00      -1   -1.0      -1   99.0      204.6  -93.5    4.8  145.8   -3.7   287.4
 00 JAN  7   7:04:00:00      -1   -1.0      -1   99.0      204.6  -93.4    4.8  145.8   -3.7   286.8
 00 JAN  7   7:05:00:00      -1   -1.0      -1   99.0      204.6  -93.3    4.9  145.8   -3.7   286.3
 00 JAN  7   7:06:00:00      -1   -1.0      -1   99.0      204.5  -93.2    4.9  145.8   -3.7   285.7
 00 JAN  7   7:07:00:00      -1   -1.0      -1   99.0      204.5  -93.2    4.9  145.8   -3.7   285.2
 00 JAN  7   7:08:00:00      -1   -1.0      -1   99.0      204.4  -93.1    4.9  145.8   -3.7   284.6
 00 JAN  7   7:09:00:00      -1   -1.0      -1   99.0      204.4  -93.0    5.0  145.8   -3.7   284.1
 00 JAN  7   7:10:00:00      -1   -1.0      -1   99.0      204.4  -93.0    5.0  145.8   -3.7   283.5
 00 JAN  7   7:11:00:00      -1   -1.0      -1   99.0      204.3  -92.9    5.0  145.8   -3.7   283.0
 00 JAN  7   7:12:00:00      -1   -1.0      -1   99.0      204.3  -92.8    5.0  145.8   -3.7   282.4
 00 JAN  7   7:13:00:00      -1   -1.0      -1   99.0      204.3  -92.7    5.1  145.8   -3.7   281.9
 00 JAN  7   7:14:00:00      -1   -1.0      -1   99.0      204.2  -92.7    5.1  145.8   -3.7   281.3
 00 JAN  7   7:15:00:00      -1   -1.0      -1   99.0      204.2  -92.6    5.1  145.8   -3.7   280.8
 00 JAN  7   7:16:00:00      -1   -1.0      -1   99.0      204.2  -92.5    5.2  145.8   -3.7   280.2
 00 JAN  7   7:17:00:00      -1   -1.0      -1   99.0      204.1  -92.4    5.2  145.8   -3.7   279.7
 00 JAN  7   7:18:00:00      -1   -1.0      -1   99.0      204.1  -92.4    5.2  145.8   -3.7   279.1
 00 JAN  7   7:19:00:00      -1   -1.0      -1   99.0      204.0  -92.3    5.2  145.8   -3.7   278.6
 00 JAN  7   7:20:00:00      -1   -1.0      -1   99.0      204.0  -92.2    5.3  145.8   -3.8   278.0
 00 JAN  7   7:21:00:00      -1   -1.0      -1   99.0      204.0  -92.1    5.3  145.8   -3.8   277.5
 00 JAN  7   7:22:00:00      -1   -1.0      -1   99.0      203.9  -92.1    5.3  145.8   -3.8   276.9
 00 JAN  7   7:23:00:00      -1   -1.0      -1   99.0      203.9  -92.0    5.3  145.8   -3.8   276.4
 00 JAN  8   8:00:00:00      -1   -1.0      -1   99.0      203.9  -91.9    5.4  145.8   -3.8   275.8
 00 JAN  8   8:01:00:00     480    3.4      35   -1.1      203.8  -91.8    5.4  145.8   -3.8   275.3
 00 JAN  8   8:02:00:00     482    3.1      36   -0.5      203.8  -91.8    5.4  145.8   -3.8   274.7
 00 JAN  8   8:03:00:00     482    3.3      36   -0.2      203.8  -91.7    5.4  145.8   -3.8   274.2
 00 JAN  8   8:04:00:00     479    3.6      35    0.2      203.7  -91.6    5.5  145.8   -3.8   273.6
 00 JAN  8   8:05:00:00     478    3.2      36    0.9      203.7  -91.5    5.5  145.8   -3.8   273.1
 00 JAN  8   8:06:00:00     481    2.7      38    0.0      203.7  -91.5    5.5  145.8   -3.8   272.5
 00 JAN  8   8:07:00:00     478    2.6      40   -0.1      203.6  -91.4    5.6  145.8   -3.8   272.0
 00 JAN  8   8:08:00:00     466    2.9      38    0.4      203.6  -91.3    5.6  145.8   -3.8   271.4
 00 JAN  8   8:09:00:00     462    2.8      39    1.3      203.5  -91.2    5.6  145.8   -3.8   270.9
 00 JAN  8   8:10:00:00     457    2.9      40    2.4      203.5  -91.2    5.6  145.8   -3.8   270.3
 00 JAN  8   8:11:00:00     450    2.8      42    1.5      203.5  -91.1    5.7  145.8   -3.8   269.8
 00 JAN  8   8:12:00:00     437    3.1      40    2.6      203.4  -91.0    5.7  145.8   -3.8   269.2
 00 JAN  8   8:13:00:00     441    3.3      38    3.7      203.4  -90.9    5.7  145.8   -3.8   268.7
 00 JAN  8   8:14:00:00     438    3.0      37    2.8      203.4  -90.9    5.7  145.8   -3.8   268.1
 00 JAN  8   8:15:00:00     433    3.2      38    2.6      203.3  -90.8    5.8  145.8   -3.8   267.6
 00 JAN  8   8:16:00:00     424    3.0      39    1.1      203.3  -90.7    5.8  145.8   -3.8   267.0
 00 JAN  8   8:17:00:00     423    3.2      39    0.6      203.3  -90.6    5.8  145.8   -3.8   266.5
 00 JAN  8   8:18:00:00     420    3.4      38    1.3      203.2  -90.5    5.8  145.8   -3.9   265.9
 00 JAN  8   8:19:00:00     418    3.8      36    2.3      203.2  -90.5    5.9  145.8   -3.9   265.4
 00 JAN  8   8:20:00:00     411    3.5      34    1.3      203.2  -90.4    5.9  145.8   -3.9   264.8
 00 JAN  8   8:21:00:00     405    4.0      32    1.5      203.1  -90.3    5.9  145.8   -3.9   264.3
 00 JAN  8   8:22:00:00     401    4.0      30    1.2      203.1  -90.2    5.9  145.8   -3.9   263.7
 00 JAN  8   8:23:00:00     398    4.7      29    3.0      203.0  -90.1    6.0  145.8   -3.9   263.2
 00 JAN  9   9:00:00:00     398    4.5      29    3.1      203.0  -90.1    6.0  145.8   -3.9   262.6
 00 JAN  9   9:01:00:00     396    4.7      28    3.7      203.0  -90.0    6.0  145.8   -3.9   262.1
 00 JAN  9   9:02:00:00     387    4.0      27    1.6      202.9  -89.9    6.0  145.8   -3.9   261.5
 00 JAN  9   9:03:00:00     383    4.5      25    1.7      202.9  -89.8    6.1  145.8   -3.9   261.0
 00 JAN  9   9:04:00:00     379    4.9      24    1.3      202.9  -89.7    6.1  145.8   -3.9   260.4
 00 JAN  9   9:05:00:00     377    4.4      24    1.0      202.8  -89.7    6.1  145.8   -3.9   259.9
 00 JAN  9   9:06:00:00     376    4.1      23    0.9      202.8  -89.6    6.2  145.8   -3.9   259.3
 00 JAN  9   9:07:00:00     373    3.7      23    0.2      202.8  -89.5    6.2  145.8   -3.9   258.8
 00 JAN  9   9:08:00:00     370    3.8      22    0.0      202.7  -89.4    6.2  145.8   -3.9   258.2
 00 JAN  9   9:09:00:00     370    3.9      22    0.1      202.7  -89.3    6.2  145.8   -3.9   257.7
 00 JAN  9   9:10:00:00     367    4.2      22    0.1      202.7  -89.3    6.3  145.8   -3.9   257.1
 00 JAN  9   9:11:00:00     361    4.3      21   -0.2      202.6  -89.2    6.3  145.8   -3.9   256.6
 00 JAN  9   9:12:00:00     359    4.8      21   -0.3      202.6  -89.1    6.3  145.8   -3.9   256.0
 00 JAN  9   9:13:00:00     355    4.7      20   -0.4      202.6  -89.0    6.3  145.8   -3.9   255.5
 00 JAN  9   9:14:00:00     353    5.0      21   -0.2      202.5  -88.9    6.4  145.8   -3.9   254.9
 00 JAN  9   9:15:00:00     353    5.2      21    0.0      202.5  -88.8    6.4  145.8   -3.9   254.4
 00 JAN  9   9:16:00:00     353    6.0      21   -0.2      202.4  -88.8    6.4  145.8   -3.9   253.8
 00 JAN  9   9:17:00:00     351    6.3      21   -0.5      202.4  -88.7    6.4  145.8   -4.0   253.3
 00 JAN  9   9:18:00:00     349    7.3      22   -1.2      202.4  -88.6    6.5  145.8   -4.0   252.7
 00 JAN  9   9:19:00:00     348    7.3      22   -1.1      202.3  -88.5    6.5  145.8   -4.0   252.2
 00 JAN  9   9:20:00:00     348    8.0      22   -0.9      202.3  -88.4    6.5  145.8   -4.0   251.6
 00 JAN  9   9:21:00:00     346    7.9      22   -1.3      202.3  -88.3    6.5  145.8   -4.0   251.1
 00 JAN  9   9:22:00:00     342    7.1      23   -2.0      202.2  -88.3    6.6  145.8   -4.0   250.5
 00 JAN  9   9:23:00:00     337    6.8      22   -2.5      202.2  -88.2    6.6  145.8   -4.0   250.0
 00 JAN 10  10:00:00:00     340    8.2      19   -2.2      202.2  -88.1    6.6  145.8   -4.0   249.4
 00 JAN 10  10:01:00:00     346    7.2      20   -2.5      202.1  -88.0    6.6  145.8   -4.0   248.9
 00 JAN 10  10:02:00:00     343    8.1      21   -2.0      202.1  -87.9    6.7  145.8   -4.0   248.3
 00 JAN 10  10:03:00:00     336    9.3      22   -2.8      202.1  -87.8    6.7  145.8   -4.0   247.8
 00 JAN 10  10:04:00:00     338    9.3      22   -2.5      202.0  -87.8    6.7  145.8   -4.0   247.2
 00 JAN 10  10:05:00:00     334    8.6      20   -2.7      202.0  -87.7    6.8  145.8   -4.0   246.7
 00 JAN 10  10:06:00:00     331    7.9      21   -2.1      202.0  -87.6    6.8  145.8   -4.0   246.1
 00 JAN 10  10:07:00:00     347    7.2      25   -0.4      201.9  -87.5    6.8  145.8   -4.0   245.6
 00 JAN 10  10:08:00:00     345    5.9      26   -0.9      201.9  -87.4    6.8  145.8   -4.0   245.0
 00 JAN 10  10:09:00:00     341    5.9      25   -1.1      201.9  -87.3    6.9  145.8   -4.0   244.5
 00 JAN 10  10:10:00:00     336    5.7      25   -1.3      201.8  -87.2    6.9  145.8   -4.0   243.9
 00 JAN 10  10:11:00:00     329    6.7      24   -1.2      201.8  -87.2    6.9  145.8   -4.0   243.4
 00 JAN 10  10:12:00:00     329    7.3      24    0.1      201.7  -87.1    6.9  145.8   -4.0   242.8
 00 JAN 10  10:13:00:00     336    8.2      24    0.9      201.7  -87.0    7.0  145.8   -4.0   242.3
 00 JAN 10  10:14:00:00     347    8.5      23    0.3      201.7  -86.9    7.0  145.8   -4.0   241.7
 00 JAN 10  10:15:00:00     342   15.3      22    0.9      201.6  -86.8    7.0  145.8   -4.0   241.2
 00 JAN 10  10:16:00:00     349   18.1      23   -0.6      201.6  -86.7    7.0  145.8   -4.1   240.6
 00 JAN 10  10:17:00:00     351   16.7      23   -0.2      201.6  -86.6    7.1  145.8   -4.1   240.1
 00 JAN 10  10:18:00:00     353   15.7      25    1.0      201.5  -86.5    7.1  145.8   -4.1   239.5
 00 JAN 10  10:19:00:00     354   17.3      25   -0.8      201.5  -86.5    7.1  145.8   -4.1   239.0
 00 JAN 10  10:20:00:00     358   18.4      27   -0.5      201.5  -86.4    7.1  145.8   -4.1   238.4
 00 JAN 10  10:21:00:00     390   15.3      36    2.6      201.4  -86.3    7.2  145.8   -4.1   237.9
 00 JAN 10  10:22:00:00     412   10.0      38    1.3      201.4  -86.2    7.2  145.8   -4.1   237.3
 00 JAN 10  10:23:00:00     422   10.9      38    0.2      201.4  -86.1    7.2  145.8   -4.1   236.8
 00 JAN 11  11:00:00:00     423   10.2      39    0.7      201.3  -86.0    7.2  145.8   -4.1   236.2
 00 JAN 11  11:01:00:00     437   10.0      43    0.3      201.3  -85.9    7.3  145.8   -4.1   235.7
 00 JAN 11  11:02:00:00     442    9.9      44    1.6      201.3  -85.8    7.3  145.8   -4.1   235.1
 00 JAN 11  11:03:00:00     445   10.4      41    0.4      201.2  -85.8    7.3  145.8   -4.1   234.6
 00 JAN 11  11:04:00:00     444   11.3      42    2.8      201.2  -85.7    7.3  145.8   -4.1   234.0
 00 JAN 11  11:05:00:00     441   10.6      41    3.0      201.2  -85.6    7.4  145.8   -4.1   233.5
 00 JAN 11  11:06:00:00     438   11.3      39    1.8      201.1  -85.5    7.4  145.8   -4.1   232.9
 00 JAN 11  11:07:00:00     456   13.2      42    1.6      201.1  -85.4    7.4  145.8   -4.1   232.4
 00 JAN 11  11:08:00:00     456   12.9      45    1.2      201.1  -85.3    7.4  145.8   -4.1   231.8
 00 JAN 11  11:09:00:00     446   12.8      49    2.0      201.0  -85.2    7.5  145.8   -4.1   231.3
 00 JAN 11  11:10:00:00     448   13.9      52    1.7      201.0  -85.1    7.5  145.8   -4.1   230.7
 00 JAN 11  11:11:00:00     426   12.0      40    0.9      201.0  -85.0    7.5  145.8   -4.1   230.2
 00 JAN 11  11:12:00:00     420   11.4      37    0.7      200.9  -84.9    7.5  145.8   -4.1   229.6
 00 JAN 11  11:13:00:00     436   13.6      40    0.2      200.9  -84.9    7.6  145.8   -4.1   229.1
 00 JAN 11  11:14:00:00     482   20.7      51   -0.6      200.9  -84.8    7.6  145.8   -4.1   228.5
 00 JAN 11  11:15:00:00     487   20.3      57   -0.3      200.8  -84.7    7.6  145.8   -4.2   227.9
 00 JAN 11  11:16:00:00     489   16.8      55   -1.0      200.8  -84.6    7.6  145.8   -4.2   227.4
 00 JAN 11  11:17:00:00     471   16.4      50   -3.1      200.8  -84.5    7.7  145.8   -4.2   226.8
 00 JAN 11  11:18:00:00     463   12.0      49   -2.2      200.7  -84.4    7.7  145.8   -4.2   226.3
 00 JAN 11  11:19:00:00     464    9.5      59   -1.5      200.7  -84.3    7.7  145.8   -4.2   225.7
 00 JAN 11  11:20:00:00     484    6.3      66    1.3      200.7  -84.2    7.7  145.8   -4.2   225.2
 00 JAN 11  11:21:00:00     519    5.4      74    2.3      200.6  -84.1    7.8  145.8   -4.2   224.6
 00 JAN 11  11:22:00:00     544    5.6      69    2.6      200.6  -84.0    7.8  145.8   -4.2   224.1
 00 JAN 11  11:23:00:00     569    6.4      66    3.2      200.6  -83.9    7.8  145.8   -4.2   223.5
 00 JAN 12  12:00:00:00     585    4.6      71    1.3      200.5  -83.8    7.8  145.8   -4.2   223.0
 00 JAN 12  12:01:00:00     579    4.1      67    0.7      200.5  -83.8    7.9  145.8   -4.2   222.4
 00 JAN 12  12:02:00:00     591    2.9      78    0.7      200.5  -83.7    7.9  145.8   -4.2   221.9
 00 JAN 12  12:03:00:00     592    2.5      73    1.3      200.4  -83.6    7.9  145.8   -4.2   221.3
 00 JAN 12  12:04:00:00     587    3.1      64   -0.7      200.4  -83.5    7.9  145.8   -4.2   220.8
 00 JAN 12  12:05:00:00     625    3.4      65    1.5      200.4  -83.4    8.0  145.8   -4.2   220.2
 00 JAN 12  12:06:00:00     594    3.5      60    1.5      200.3  -83.3    8.0  145.9   -4.2   219.7
 00 JAN 12  12:07:00:00     577    4.0      57    0.8      200.3  -83.2    8.0  145.9   -4.2   219.1
 00 JAN 12  12:08:00:00     584    3.9      59    0.3      200.3  -83.1    8.0  145.9   -4.2   218.6
 00 JAN 12  12:09:00:00     572    3.4      56    0.6      200.2  -83.0    8.1  145.9   -4.2   218.0
 00 JAN 12  12:10:00:00     568    3.4      56    0.4      200.2  -82.9    8.1  145.9   -4.2   217.5
 00 JAN 12  12:11:00:00     571    3.3      56    0.9      200.2  -82.8    8.1  145.9   -4.2   216.9
 00 JAN 12  12:12:00:00     558    3.5      54    0.1      200.1  -82.7    8.1  145.9   -4.2   216.4
 00 JAN 12  12:13:00:00     566    3.9      50    0.9      200.1  -82.6    8.2  145.9   -4.2   215.8
 00 JAN 12  12:14:00:00     550    3.8      48    1.6      200.1  -82.5    8.2  145.9   -4.3   215.3
 00 JAN 12  12:15:00:00     548    3.7      48    1.2      200.0  -82.4    8.2  145.9   -4.3   214.7
 00 JAN 12  12:16:00:00     543    3.6      50    0.4      200.0  -82.3    8.2  145.9   -4.3   214.2
 00 JAN 12  12:17:00:00     536    3.1      47   -0.3      200.0  -82.2    8.3  145.9   -4.3   213.6
 00 JAN 12  12:18:00:00     534    3.3      47   -1.4      199.9  -82.2    8.3  145.9   -4.3   213.1
 00 JAN 12  12:19:00:00     545    3.3      48   -0.5      199.9  -82.1    8.3  145.9   -4.3   212.5
 00 JAN 12  12:20:00:00     550    3.3      49    1.3      199.9  -82.0    8.3  145.9   -4.3   212.0
 00 JAN 12  12:21:00:00     552    3.2      50    1.4      199.8  -81.9    8.4  145.9   -4.3   211.4
 00 JAN 12  12:22:00:00     559    3.2      50    1.2      199.8  -81.8    8.4  145.9   -4.3   210.9
 00 JAN 12  12:23:00:00     542    3.7      52   -1.5      199.8  -81.7    8.4  145.9   -4.3   210.3
 00 JAN 13  13:00:00:00     554    3.6      51    0.0      199.7  -81.6    8.4  145.9   -4.3   209.8
 00 JAN 13  13:01:00:00     557    3.9      54    0.4      199.7  -81.5    8.5  145.9   -4.3   209.2
 00 JAN 13  13:02:00:00     566    3.5      56    0.9      199.7  -81.4    8.5  145.9   -4.3   208.7
 00 JAN 13  13:03:00:00     559    3.4      51   -1.1      199.6  -81.3    8.5  145.9   -4.3   208.1
 00 JAN 13  13:04:00:00     551    3.6      51    0.8      199.6  -81.2    8.5  145.9   -4.3   207.6
 00 JAN 13  13:05:00:00     558    3.6      52   -0.1      199.6  -81.1    8.6  145.9   -4.3   207.0
 00 JAN 13  13:06:00:00     533    3.3      51   -0.5      199.5  -81.0    8.6  145.9   -4.3   206.5
 00 JAN 13  13:07:00:00     538    3.2      50   -0.9      199.5  -80.9    8.6  145.9   -4.3   205.9
 00 JAN 13  13:08:00:00     554    3.5      52   -0.3      199.5  -80.8    8.6  145.9   -4.3   205.4
 00 JAN 13  13:09:00:00     567    3.5      52    0.1      199.5  -80.7    8.7  145.9   -4.3   204.8
 00 JAN 13  13:10:00:00     539    3.3      50   -0.3      199.4  -80.6    8.7  145.9   -4.3   204.3
 00 JAN 13  13:11:00:00     539    3.3      49    0.0      199.4  -80.5    8.7  145.9   -4.3   203.7
 00 JAN 13  13:12:00:00     535    3.2      49   -0.4      199.4  -80.4    8.7  145.9   -4.3   203.2
 00 JAN 13  13:13:00:00     536    3.4      48   -0.2      199.3  -80.3    8.8  145.9   -4.3   202.6
 00 JAN 13  13:14:00:00     526    3.2      46   -0.5      199.3  -80.2    8.8  145.9   -4.4   202.1
 00 JAN 13  13:15:00:00     530    3.1      47    1.2      199.3  -80.1    8.8  145.9   -4.4   201.5
 00 JAN 13  13:16:00:00     514    3.3      45   -0.3      199.2  -80.0    8.8  145.9   -4.4   201.0
 00 JAN 13  13:17:00:00     534    2.7      47   -0.3      199.2  -79.9    8.9  145.9   -4.4   200.4
 00 JAN 13  13:18:00:00     536    2.4      47    0.0      199.2  -79.8    8.9  145.9   -4.4   199.9
 00 JAN 13  13:19:00:00     502    2.9      40    0.3      199.1  -79.7    8.9  145.9   -4.4   199.3
 00 JAN 13  13:20:00:00     512    3.2      44    0.3      199.1  -79.6    8.9  145.9   -4.4   198.8
 00 JAN 13  13:21:00:00     509    3.5      42   -1.5      199.1  -79.5    9.0  145.9   -4.4   198.2
 00 JAN 13  13:22:00:00     510    3.2      42   -1.8      199.0  -79.4    9.0  145.9   -4.4   197.7
 00 JAN 13  13:23:00:00     491    3.7      38   -1.6      199.0  -79.3    9.0  145.9   -4.4   197.1
 00 JAN 14  14:00:00:00     496    3.4      42   -1.6      199.0  -79.2    9.0  145.9   -4.4   196.6
 00 JAN 14  14:01:00:00     503    2.8      46   -1.3      198.9  -79.1    9.1  145.9   -4.4   196.0
 00 JAN 14  14:02:00:00     502    3.4      43   -0.9      198.9  -79.0    9.1  145.9   -4.4   195.5
 00 JAN 14  14:03:00:00     496    3.8      40   -0.7      198.9  -78.9    9.1  145.9   -4.4   194.9
 00 JAN 14  14:04:00:00     496    3.5      39   -0.7      198.9  -78.8    9.1  145.9   -4.4   194.4
 00 JAN 14  14:05:00:00     494    3.1      42   -1.5      198.8  -78.7    9.2  145.9   -4.4   193.8
 00 JAN 14  14:06:00:00     491    3.6      39   -0.7      198.8  -78.6    9.2  145.9   -4.4   193.3
 00 JAN 14  14:07:00:00     487    3.8      37   -0.3      198.8  -78.5    9.2  145.9   -4.4   192.7
 00 JAN 14  14:08:00:00     492    3.8      40   -0.4      198.7  -78.4    9.2  145.9   -4.4   192.2
 00 JAN 14  14:09:00:00     492    3.8      37   -1.6      198.7  -78.3    9.3  145.9   -4.4   191.6
 00 JAN 14  14:10:00:00     480    4.7      35   -2.1      198.7  -78.2    9.3  145.9   -4.4   191.1
 00 JAN 14  14:11:00:00     478    4.7      36   -1.8      198.6  -78.1    9.3  145.9   -4.4   190.5
 00 JAN 14  14:12:00:00     472    4.4      39   -1.1      198.6  -78.0    9.3  145.9   -4.4   190.0
 00 JAN 14  14:13:00:00     474    4.8      36   -1.6      198.6  -77.9    9.3  145.9   -4.4   189.4
 00 JAN 14  14:14:00:00     470    4.3      38   -0.7      198.6  -77.8    9.4  145.9   -4.5   188.9
 00 JAN 14  14:15:00:00     467    3.7      41    0.0      198.5  -77.7    9.4  145.9   -4.5   188.3
 00 JAN 14  14:16:00:00      -1   -1.0      -1   99.0      198.5  -77.6    9.4  145.9   -4.5   187.8
 00 JAN 14  14:17:00:00      -1   -1.0      -1   99.0      198.5  -77.5    9.4  145.9   -4.5   187.2
 00 JAN 14  14:18:00:00     470    4.3      38   -2.3      198.4  -77.4    9.5  145.9   -4.5   186.7
 00 JAN 14  14:19:00:00     463    4.0      38   -1.2      198.4  -77.3    9.5  145.9   -4.5   186.1
 00 JAN 14  14:20:00:00     454    3.7      40   -0.1      198.4  -77.2    9.5  145.9   -4.5   185.6
 00 JAN 14  14:21:00:00     463    4.0      38    0.1      198.3  -77.1    9.5  145.9   -4.5   185.0
 00 JAN 14  14:22:00:00     456    3.8      39    0.3      198.3  -77.0    9.6  145.9   -4.5   184.5
 00 JAN 14  14:23:00:00     452    3.3      36   -1.4      198.3  -76.9    9.6  145.9   -4.5   183.9
 00 JAN 15  15:00:00:00     443    3.5      37   -1.5      198.3  -76.8    9.6  145.9   -4.5   183.4
 00 JAN 15  15:01:00:00     433    3.4      36   -1.2      198.2  -76.7    9.6  145.9   -4.5   182.8
 00 JAN 15  15:02:00:00     433    3.5      36   -1.1      198.2  -76.6    9.7  145.9   -4.5   182.3
 00 JAN 15  15:03:00:00     431    3.5      37   -0.2      198.2  -76.5    9.7  145.9   -4.5   181.7
 00 JAN 15  15:04:00:00     437    3.8      37   -1.3      198.1  -76.4    9.7  145.9   -4.5   181.2
 00 JAN 15  15:05:00:00     435    4.4      38    1.8      198.1  -76.3    9.7  145.9   -4.5   180.6
 00 JAN 15  15:06:00:00     423    4.4      36   -0.8      198.1  -76.2    9.8  145.9   -4.5   180.1
 00 JAN 15  15:07:00:00     438    4.0      36    0.5      198.1  -76.1    9.8  145.9   -4.5   179.5
 00 JAN 15  15:08:00:00     441    3.8      36    1.2      198.0  -76.0    9.8  145.9   -4.5   179.0
 00 JAN 15  15:09:00:00     435    4.1      37    0.3      198.0  -75.9    9.8  145.9   -4.5   178.4
 00 JAN 15  15:10:00:00     424    4.5      36   -1.3      198.0  -75.7    9.8  145.9   -4.5   177.9
 00 JAN 15  15:11:00:00     426    3.8      39   -1.5      197.9  -75.6    9.9  145.9   -4.5   177.3
 00 JAN 15  15:12:00:00     424    3.8      41   -0.7      197.9  -75.5    9.9  145.9   -4.5   176.8
 00 JAN 15  15:13:00:00     428    4.5      35   -0.2      197.9  -75.4    9.9  145.9   -4.5   176.2
 00 JAN 15  15:14:00:00     427    4.2      34   -1.4      197.9  -75.3    9.9  145.9   -4.6   175.7
 00 JAN 15  15:15:00:00     430    4.2      36    1.0      197.8  -75.2   10.0  145.9   -4.6   175.1
 00 JAN 15  15:16:00:00     417    4.3      34   -1.6      197.8  -75.1   10.0  145.9   -4.6   174.6
 00 JAN 15  15:17:00:00     435    3.1      38    0.9      197.8  -75.0   10.0  145.9   -4.6   174.0
 00 JAN 15  15:18:00:00     447    3.2      37   -0.4      197.7  -74.9   10.0  145.9   -4.6   173.5
 00 JAN 15  15:19:00:00     419    3.6      34   -1.5      197.7  -74.8   10.1  145.9   -4.6   172.9
 00 JAN 15  15:20:00:00     426    3.8      36   -0.4      197.7  -74.7   10.1  145.9   -4.6   172.4
 00 JAN 15  15:21:00:00     419    4.1      35   -1.7      197.7  -74.6   10.1  145.9   -4.6   171.8
 00 JAN 15  15:22:00:00     403    4.1      32   -2.1      197.6  -74.5   10.1  145.9   -4.6   171.3
 00 JAN 15  15:23:00:00     398    3.9      32   -1.5      197.6  -74.4   10.2  145.9   -4.6   170.7
 00 JAN 16  16:00:00:00     411    3.8      33   -1.5      197.6  -74.3   10.2  145.9   -4.6   170.2
 00 JAN 16  16:01:00:00     407    3.8      33   -2.1      197.5  -74.2   10.2  145.9   -4.6   169.6
 00 JAN 16  16:02:00:00     397    3.9      29   -1.6      197.5  -74.1   10.2  145.9   -4.6   169.1
 00 JAN 16  16:03:00:00     400    3.8      32   -0.4      197.5  -74.0   10.2  145.9   -4.6   168.5
 00 JAN 16  16:04:00:00     393    3.0      35   -0.4      197.5  -73.8   10.3  145.9   -4.6   168.0
 00 JAN 16  16:05:00:00     395    3.3      32   -1.7      197.4  -73.7   10.3  145.9   -4.6   167.4
 00 JAN 16  16:06:00:00     394    4.2      29   -2.0      197.4  -73.6   10.3  145.9   -4.6   166.9
 00 JAN 16  16:07:00:00     396    4.6      29   -1.4      197.4  -73.5   10.3  145.9   -4.6   166.3
 00 JAN 16  16:08:00:00     401    3.6      35    0.7      197.4  -73.4   10.4  145.9   -4.6   165.8
 00 JAN 16  16:09:00:00     414    3.0      42   -1.7      197.3  -73.3   10.4  145.9   -4.6   165.2
 00 JAN 16  16:10:00:00     403    3.3      38   -2.1      197.3  -73.2   10.4  145.9   -4.6   164.7
 00 JAN 16  16:11:00:00     401    3.3      39   -1.4      197.3  -73.1   10.4  145.9   -4.6   164.1
 00 JAN 16  16:12:00:00     396    3.4      42   -1.7      197.3  -73.0   10.5  145.9   -4.6   163.6
 00 JAN 16  16:13:00:00     403    3.6      41   -0.9      197.2  -72.9   10.5  145.9   -4.6   163.0
 00 JAN 16  16:14:00:00     410    3.5      42   -1.3      197.2  -72.8   10.5  145.9   -4.6   162.5
 00 JAN 16  16:15:00:00     404    4.0      37   -1.1      197.2  -72.7   10.5  145.9   -4.7   161.9
 00 JAN 16  16:16:00:00     401    4.6      32   -1.0      197.1  -72.6   10.6  145.9   -4.7   161.4
 00 JAN 16  16:17:00:00     398    4.8      31   -0.8      197.1  -72.4   10.6  145.9   -4.7   160.8
 00 JAN 16  16:18:00:00     393    5.0      29    0.0      197.1  -72.3   10.6  145.9   -4.7   160.3
 00 JAN 16  16:19:00:00     387    4.5      26   -1.6      197.1  -72.2   10.6  145.9   -4.7   159.7
 00 JAN 16  16:20:00:00     389    3.9      26   -2.0      197.0  -72.1   10.6  145.9   -4.7   159.2
 00 JAN 16  16:21:00:00     387    4.1      27   -2.0      197.0  -72.0   10.7  145.9   -4.7   158.6
 00 JAN 16  16:22:00:00     395    3.8      31   -2.1      197.0  -71.9   10.7  145.9   -4.7   158.1
 00 JAN 16  16:23:00:00     396    3.0      37   -1.6      197.0  -71.8   10.7  145.9   -4.7   157.5
 00 JAN 17  17:00:00:00     400    3.1      31   -1.1      196.9  -71.7   10.7  145.9   -4.7   157.0
 00 JAN 17  17:01:00:00     399    3.8      33   -0.6      196.9  -71.6   10.8  145.9   -4.7   156.4
 00 JAN 17  17:02:00:00     404    3.3      33   -1.4      196.9  -71.5   10.8  145.9   -4.7   155.9
 00 JAN 17  17:03:00:00     404    3.3      32   -2.1      196.9  -71.4   10.8  145.9   -4.7   155.3
 00 JAN 17  17:04:00:00     419    3.2      36   -2.0      196.8  -71.2   10.8  145.9   -4.7   154.8
 00 JAN 17  17:05:00:00     411    3.6      36   -2.1      196.8  -71.1   10.9  145.9   -4.7   154.2
 00 JAN 17  17:06:00:00     399    3.6      31   -2.3      196.8  -71.0   10.9  145.9   -4.7   153.7
 00 JAN 17  17:07:00:00     378    3.8      29   -1.0      196.8  -70.9   10.9  145.9   -4.7   153.1
 00 JAN 17  17:08:00:00     385    4.4      27   -1.9      196.7  -70.8   10.9  145.9   -4.7   152.6
 00 JAN 17  17:09:00:00     380    4.3      27   -1.4      196.7  -70.7   10.9  145.9   -4.7   152.0
 00 JAN 17  17:10:00:00     383    4.4      28    1.1      196.7  -70.6   11.0  145.9   -4.7   151.5
 00 JAN 17  17:11:00:00     377    4.6      32   -0.5      196.7  -70.5   11.0  145.9   -4.7   150.9
 00 JAN 17  17:12:00:00     369    5.8      26   -3.8      196.6  -70.4   11.0  145.9   -4.7   150.4
 00 JAN 17  17:13:00:00     377    4.2      28   -1.9      196.6  -70.2   11.0  145.9   -4.7   149.8
 00 JAN 17  17:14:00:00     390    4.1      29   -1.7      196.6  -70.1   11.1  145.9   -4.7   149.3
 00 JAN 17  17:15:00:00     342    3.4      25   -0.9      196.6  -70.0   11.1  145.9   -4.7   148.7
 00 JAN 17  17:16:00:00     344    3.5      25   -0.6      196.6  -69.9   11.1  145.9   -4.8   148.2
 00 JAN 17  17:17:00:00     354    3.8      25   -0.4      196.5  -69.8   11.1  145.9   -4.8   147.6
 00 JAN 17  17:18:00:00     357    4.0      23   -0.8      196.5  -69.7   11.1  145.9   -4.8   147.1
 00 JAN 17  17:19:00:00     346    3.6      27   -0.6      196.5  -69.6   11.2  145.9   -4.8   146.5
 00 JAN 17  17:20:00:00     345    3.7      26   -0.7      196.5  -69.5   11.2  145.9   -4.8   146.0
 00 JAN 17  17:21:00:00     347    3.9      25   -1.1      196.4  -69.4   11.2  145.9   -4.8   145.4
 00 JAN 17  17:22:00:00     342    4.0      25   -1.0      196.4  -69.2   11.2  145.9   -4.8   144.9
 00 JAN 17  17:23:00:00     341    4.4      24   -1.9      196.4  -69.1   11.3  145.9   -4.8   144.3
 00 JAN 18  18:00:00:00     336    4.8      23   -2.7      196.4  -69.0   11.3  145.9   -4.8   143.8
 00 JAN 18  18:01:00:00     338    5.1      23   -2.7      196.3  -68.9   11.3  145.9   -4.8   143.2
 00 JAN 18  18:02:00:00     335    5.2      23   -2.8      196.3  -68.8   11.3  145.9   -4.8   142.7
 00 JAN 18  18:03:00:00     336    5.3      24   -2.6      196.3  -68.7   11.3  145.9   -4.8   142.1
 00 JAN 18  18:04:00:00     340    5.7      23   -2.7      196.3  -68.6   11.4  145.9   -4.8   141.6
 00 JAN 18  18:05:00:00     342    5.5      23   -2.8      196.3  -68.4   11.4  145.9   -4.8   141.0
 00 JAN 18  18:06:00:00     339    4.6      23   -1.9      196.2  -68.3   11.4  145.9   -4.8   140.5
 00 JAN 18  18:07:00:00     332    3.9      22   -1.5      196.2  -68.2   11.4  145.9   -4.8   139.9
 00 JAN 18  18:08:00:00     333    3.8      20   -1.9      196.2  -68.1   11.5  145.9   -4.8   139.4
 00 JAN 18  18:09:00:00     336    6.2      19   -3.3      196.2  -68.0   11.5  145.9   -4.8   138.8
 00 JAN 18  18:10:00:00     335    6.5      20   -0.9      196.1  -67.9   11.5  145.9   -4.8   138.3
 00 JAN 18  18:11:00:00     331    8.1      21    0.3      196.1  -67.8   11.5  145.9   -4.8   137.7
 00 JAN 18  18:12:00:00     329    8.5      22   -0.3      196.1  -67.7   11.5  145.9   -4.8   137.2
 00 JAN 18  18:13:00:00     313    9.4      19   -1.1      196.1  -67.5   11.6  145.9   -4.8   136.6
 00 JAN 18  18:14:00:00     306   10.8      19   -1.7      196.1  -67.4   11.6  145.9   -4.8   136.1
 00 JAN 18  18:15:00:00     307    7.7      19   -0.6      196.0  -67.3   11.6  145.9   -4.8   135.5
 00 JAN 18  18:16:00:00     318    7.4      19    1.1      196.0  -67.2   11.6  145.9   -4.8   135.0
 00 JAN 18  18:17:00:00     322    6.6      20    1.2      196.0  -67.1   11.7  145.9   -4.9   134.4
 00 JAN 18  18:18:00:00     330    6.2      24   -0.2      196.0  -67.0   11.7  145.9   -4.9   133.9
 00 JAN 18  18:19:00:00     330    5.4      23   -0.5      196.0  -66.8   11.7  145.9   -4.9   133.3
 00 JAN 18  18:20:00:00     325    5.1      22   -0.6      195.9  -66.7   11.7  145.9   -4.9   132.8
 00 JAN 18  18:21:00:00     323    5.8      22    0.2      195.9  -66.6   11.7  145.9   -4.9   132.2
 00 JAN 18  18:22:00:00     323    7.1      22    1.0      195.9  -66.5   11.8  145.9   -4.9   131.7
 00 JAN 18  18:23:00:00     319    6.5      21    0.2      195.9  -66.4   11.8  145.9   -4.9   131.1
 00 JAN 19  19:00:00:00     311    5.4      19   -0.2      195.8  -66.3   11.8  145.9   -4.9   130.6
 00 JAN 19  19:01:00:00     301    6.5      19   -0.7      195.8  -66.2   11.8  145.9   -4.9   130.0
 00 JAN 19  19:02:00:00     300    6.6      18    2.5      195.8  -66.0   11.8  145.9   -4.9   129.5
 00 JAN 19  19:03:00:00     283   17.5      15    5.0      195.8  -65.9   11.9  145.9   -4.9   128.9
 00 JAN 19  19:04:00:00     276   30.2      15    6.0      195.8  -65.8   11.9  145.9   -4.9   128.3
 00 JAN 19  19:05:00:00     279   35.4      16    5.5      195.8  -65.7   11.9  145.9   -4.9   127.8
 00 JAN 19  19:06:00:00     278   36.4      16    5.8      195.7  -65.6   11.9  145.9   -4.9   127.2
 00 JAN 19  19:07:00:00     277   32.3      15    6.2      195.7  -65.5   12.0  145.9   -4.9   126.7
 00 JAN 19  19:08:00:00     275   24.5      15    5.3      195.7  -65.3   12.0  145.9   -4.9   126.1
 00 JAN 19  19:09:00:00     296   14.2      18    3.1      195.7  -65.2   12.0  145.9   -4.9   125.6
 00 JAN 19  19:10:00:00     300   13.9      19    3.7      195.7  -65.1   12.0  145.9   -4.9   125.0
 00 JAN 19  19:11:00:00     295   17.1      19    5.0      195.6  -65.0   12.0  145.9   -4.9   124.5
 00 JAN 19  19:12:00:00     293   16.0      19    3.5      195.6  -64.9   12.1  145.9   -4.9   123.9
 00 JAN 19  19:13:00:00     296   14.2      18    2.7      195.6  -64.7   12.1  145.9   -4.9   123.4
 00 JAN 19  19:14:00:00     324    6.6      20    0.5      195.6  -64.6   12.1  145.9   -4.9   122.8
 00 JAN 19  19:15:00:00     322   10.8      21    1.0      195.6  -64.5   12.1  145.9   -4.9   122.3
 00 JAN 19  19:16:00:00     320   12.9      22   -0.3      195.5  -64.4   12.1  145.9   -4.9   121.7
 00 JAN 19  19:17:00:00     326   13.4      22   -1.1      195.5  -64.3   12.2  145.9   -4.9   121.2
 00 JAN 19  19:18:00:00     331   14.7      23   -0.3      195.5  -64.2   12.2  145.9   -4.9   120.6
 00 JAN 19  19:19:00:00     334   17.0      24   -1.3      195.5  -64.0   12.2  145.9   -5.0   120.1
 00 JAN 19  19:20:00:00     339   16.6      23   -0.9      195.5  -63.9   12.2  145.9   -5.0   119.5
 00 JAN 19  19:21:00:00     338   12.8      22   -0.4      195.5  -63.8   12.3  145.9   -5.0   119.0
 00 JAN 19  19:22:00:00     353   13.1      25   -0.5      195.4  -63.7   12.3  145.9   -5.0   118.4
 00 JAN 19  19:23:00:00     372   14.9      34    0.3      195.4  -63.6   12.3  145.9   -5.0   117.9
 00 JAN 20  20:00:00:00     357   13.0      30   -1.3      195.4  -63.4   12.3  145.9   -5.0   117.3
 00 JAN 20  20:01:00:00     364   12.3      31    0.1      195.4  -63.3   12.3  145.9   -5.0   116.8
 00 JAN 20  20:02:00:00     386   15.5      35   -2.4      195.4  -63.2   12.4  145.9   -5.0   116.2
 00 JAN 20  20:03:00:00     386   15.9      37   -3.4      195.4  -63.1   12.4  145.9   -5.0   115.7
 00 JAN 20  20:04:00:00     388   15.4      39   -2.5      195.3  -63.0   12.4  145.9   -5.0   115.1
 00 JAN 20  20:05:00:00     377   16.7      36   -2.8      195.3  -62.8   12.4  145.9   -5.0   114.6
 00 JAN 20  20:06:00:00     377   14.1      37   -0.4      195.3  -62.7   12.4  145.9   -5.0   114.0
 00 JAN 20  20:07:00:00     381   11.3      39   -0.1      195.3  -62.6   12.5  146.0   -5.0   113.5
 00 JAN 20  20:08:00:00     377   10.5      38   -1.4      195.3  -62.5   12.5  146.0   -5.0   112.9
 00 JAN 20  20:09:00:00     386    8.9      40   -2.3      195.3  -62.4   12.5  146.0   -5.0   112.4
 00 JAN 20  20:10:00:00     376    6.7      39   -1.5      195.2  -62.2   12.5  146.0   -5.0   111.8
 00 JAN 20  20:11:00:00     373    7.2      38   -1.7      195.2  -62.1   12.5  146.0   -5.0   111.3
 00 JAN 20  20:12:00:00     386    7.7      41   -2.1      195.2  -62.0   12.6  146.0   -5.0   110.7
 00 JAN 20  20:13:00:00     379    9.8      40   -4.0      195.2  -61.9   12.6  146.0   -5.0   110.2
 00 JAN 20  20:14:00:00     379   10.6      42   -2.5      195.2  -61.8   12.6  146.0   -5.0   109.6
 00 JAN 20  20:15:00:00     379   11.3      42   -2.0      195.2  -61.6   12.6  146.0   -5.0   109.1
 00 JAN 20  20:16:00:00     386   10.8      42   -3.0      195.1  -61.5   12.6  146.0   -5.0   108.5
 00 JAN 20  20:17:00:00     388    9.4      43   -2.2      195.1  -61.4   12.7  146.0   -5.0   108.0
 00 JAN 20  20:18:00:00     391   10.4      45   -1.5      195.1  -61.3   12.7  146.0   -5.0   107.4
 00 JAN 20  20:19:00:00     385   12.3      41   -2.7      195.1  -61.1   12.7  146.0   -5.0   106.9
 00 JAN 20  20:20:00:00     397   10.2      44   -2.1      195.1  -61.0   12.7  146.0   -5.0   106.3
 00 JAN 20  20:21:00:00     393    8.0      38   -2.9      195.1  -60.9   12.7  146.0   -5.0   105.8
 00 JAN 20  20:22:00:00     402    5.8      32   -2.6      195.1  -60.8   12.8  146.0   -5.1   105.2
 00 JAN 20  20:23:00:00     403    5.1      34   -2.1      195.0  -60.7   12.8  146.0   -5.1   104.7
 00 JAN 21  21:00:00:00     398    5.4      32   -2.3      195.0  -60.5   12.8  146.0   -5.1   104.1
 00 JAN 21  21:01:00:00     399    5.0      32   -2.0      195.0  -60.4   12.8  146.0   -5.1   103.6
 00 JAN 21  21:02:00:00     394    4.9      31   -2.0      195.0  -60.3   12.9  146.0   -5.1   103.0
 00 JAN 21  21:03:00:00     393    4.9      30   -1.4      195.0  -60.2   12.9  146.0   -5.1   102.5
 00 JAN 21  21:04:00:00     387    5.4      29   -0.3      194.9  -60.0   12.9  146.0   -5.1   101.9
 00 JAN 21  21:05:00:00     382    5.2      29    0.4      194.9  -59.9   12.9  146.0   -5.1   101.4
 00 JAN 21  21:06:00:00     385    4.4      31   -1.0      194.9  -59.8   12.9  146.0   -5.1   100.8
 00 JAN 21  21:07:00:00     377    4.1      30    0.0      194.9  -59.7   12.9  146.0   -5.1   100.3
 00 JAN 21  21:08:00:00     371    4.4      31    1.1      194.9  -59.5   13.0  146.0   -5.1    99.7
 00 JAN 21  21:09:00:00     375    4.5      31   -0.1      194.9  -59.4   13.0  146.0   -5.1    99.2
 00 JAN 21  21:10:00:00     376    5.4      29    0.4      194.9  -59.3   13.0  146.0   -5.1    98.6
 00 JAN 21  21:11:00:00     378    5.6      30    0.1      194.9  -59.2   13.0  146.0   -5.1    98.1
 00 JAN 21  21:12:00:00     379    6.1      30    0.1      194.8  -59.0   13.0  146.0   -5.1    97.5
 00 JAN 21  21:13:00:00     374    5.0      34   -0.4      194.8  -58.9   13.1  146.0   -5.1    97.0
 00 JAN 21  21:14:00:00     363    5.0      35    0.0      194.8  -58.8   13.1  146.0   -5.1    96.4
 00 JAN 21  21:15:00:00     355    5.7      32   -0.1      194.8  -58.7   13.1  146.0   -5.1    95.9
 00 JAN 21  21:16:00:00     348    6.1      29   -0.4      194.8  -58.5   13.1  146.0   -5.1    95.3
 00 JAN 21  21:17:00:00     348    5.6      28   -0.2      194.8  -58.4   13.1  146.0   -5.1    94.8
 00 JAN 21  21:18:00:00     336    6.4      26    0.4      194.8  -58.3   13.2  146.0   -5.1    94.2
 00 JAN 21  21:19:00:00     337    6.6      26    0.2      194.8  -58.2   13.2  146.0   -5.1    93.7
 00 JAN 21  21:20:00:00     336    6.9      26    0.8      194.7  -58.0   13.2  146.0   -5.1    93.1
 00 JAN 21  21:21:00:00     335    7.0      25    1.5      194.7  -57.9   13.2  146.0   -5.1    92.6
 00 JAN 21  21:22:00:00     334    6.8      25    0.6      194.7  -57.8   13.2  146.0   -5.1    92.0
 00 JAN 21  21:23:00:00     332    6.5      25   -0.3      194.7  -57.6   13.3  146.0   -5.1    91.5
 00 JAN 22  22:00:00:00     344   10.5      28   -2.2      194.7  -57.5   13.3  146.0   -5.1    90.9
 00 JAN 22  22:01:00:00     360   17.6      31   -3.7      194.7  -57.4   13.3  146.0   -5.2    90.4
 00 JAN 22  22:02:00:00     363   14.2      33   -2.3      194.7  -57.3   13.3  146.0   -5.2    89.8
 00 JAN 22  22:03:00:00     375   14.6      35   -1.8      194.7  -57.1   13.3  146.0   -5.2    89.3
 00 JAN 22  22:04:00:00     391   15.4      38   -0.8      194.6  -57.0   13.4  146.0   -5.2    88.7
 00 JAN 22  22:05:00:00     398   17.0      39    0.0      194.6  -56.9   13.4  146.0   -5.2    88.2
 00 JAN 22  22:06:00:00      -1   -1.0      -1   99.0      194.6  -56.8   13.4  146.0   -5.2    87.6
 00 JAN 22  22:07:00:00      -1   -1.0      -1   99.0      194.6  -56.6   13.4  146.0   -5.2    87.1
 00 JAN 22  22:08:00:00     397   20.6      37    2.2      194.6  -56.5   13.4  146.0   -5.2    86.5
 00 JAN 22  22:09:00:00     395   18.9      35    2.4      194.6  -56.4   13.5  146.0   -5.2    86.0
 00 JAN 22  22:10:00:00     395   20.4      34    3.2      194.6  -56.2   13.5  146.0   -5.2    85.4
 00 JAN 22  22:11:00:00     400   21.7      34    3.7      194.6  -56.1   13.5  146.0   -5.2    84.9
 00 JAN 22  22:12:00:00     399   22.0      33    3.7      194.6  -56.0   13.5  146.0   -5.2    84.3
 00 JAN 22  22:13:00:00     397   25.5      35    4.3      194.6  -55.8   13.5  146.0   -5.2    83.8
 00 JAN 22  22:14:00:00     413   22.1      36    1.6      194.5  -55.7   13.5  146.0   -5.2    83.2
 00 JAN 22  22:15:00:00     409   22.0      34    3.8      194.5  -55.6   13.6  146.0   -5.2    82.7
 00 JAN 22  22:16:00:00     405   20.1      33    4.3      194.5  -55.5   13.6  146.0   -5.2    82.1
 00 JAN 22  22:17:00:00     403   23.3      36    4.5      194.5  -55.3   13.6  146.0   -5.2    81.6
 00 JAN 22  22:18:00:00     393   10.4      27    2.0      194.5  -55.2   13.6  146.0   -5.2    81.0
 00 JAN 22  22:19:00:00     389   10.5      28    1.7      194.5  -55.1   13.6  146.0   -5.2    80.5
 00 JAN 22  22:20:00:00     388   12.2      29   -0.1      194.5  -54.9   13.7  146.0   -5.2    79.9
 00 JAN 22  22:21:00:00     387    7.5      30   -0.4      194.5  -54.8   13.7  146.0   -5.2    79.4
 00 JAN 22  22:22:00:00     378    7.5      36   -0.6      194.5  -54.7   13.7  146.0   -5.2    78.8
 00 JAN 22  22:23:00:00     386    7.2      31    0.1      194.5  -54.5   13.7  146.0   -5.2    78.3
 00 JAN 23  23:00:00:00     387    9.2      28    0.6      194.4  -54.4   13.7  146.0   -5.2    77.7
 00 JAN 23  23:01:00:00     399   12.4      31   -0.7      194.4  -54.3   13.7  146.0   -5.2    77.2
 00 JAN 23  23:02:00:00     392   24.6      38    1.8      194.4  -54.2   13.8  146.0   -5.2    76.6
 00 JAN 23  23:03:00:00     381   24.9      39    1.3      194.4  -54.0   13.8  146.0   -5.2    76.1
 00 JAN 23  23:04:00:00     377   25.0      39    2.1      194.4  -53.9   13.8  146.0   -5.3    75.5
 00 JAN 23  23:05:00:00     365   24.1      37    1.9      194.4  -53.8   13.8  146.0   -5.3    75.0
 00 JAN 23  23:06:00:00     362   27.3      36    3.0      194.4  -53.6   13.8  146.0   -5.3    74.4
 00 JAN 23  23:07:00:00     372   21.3      38    2.7      194.4  -53.5   13.9  146.0   -5.3    73.9
 00 JAN 23  23:08:00:00     388    6.2      39    1.1      194.4  -53.4   13.9  146.0   -5.3    73.3
 00 JAN 23  23:09:00:00     388    4.1      33   -0.7      194.4  -53.2   13.9  146.0   -5.3    72.8
 00 JAN 23  23:10:00:00     398    9.0      32    0.0      194.4  -53.1   13.9  146.0   -5.3    72.2
 00 JAN 23  23:11:00:00     389    7.9      32    1.2      194.4  -53.0   13.9  146.0   -5.3    71.7
 00 JAN 23  23:12:00:00     399    9.7      36    1.7      194.4  -52.8   13.9  146.0   -5.3    71.1
 00 JAN 23  23:13:00:00     418    7.7      37    0.1      194.3  -52.7   14.0  146.0   -5.3    70.6
 00 JAN 23  23:14:00:00     435    5.8      38   -1.8      194.3  -52.6   14.0  146.0   -5.3    70.0
 00 JAN 23  23:15:00:00     398    5.0      34    0.0      194.3  -52.4   14.0  146.0   -5.3    69.5
 00 JAN 23  23:16:00:00     411    6.3      35   -1.2      194.3  -52.3   14.0  146.0   -5.3    68.9
 00 JAN 23  23:17:00:00     395    5.4      30   -1.1      194.3  -52.2   14.0  146.0   -5.3    68.4
 00 JAN 23  23:18:00:00     399    4.7      31   -0.4      194.3  -52.0   14.0  146.0   -5.3    67.8
 00 JAN 23  23:19:00:00     386    2.5      38    2.1      194.3  -51.9   14.1  146.0   -5.3    67.3
 00 JAN 23  23:20:00:00     369    3.1      30    4.7      194.3  -51.7   14.1  146.0   -5.3    66.7
 00 JAN 23  23:21:00:00     351    3.2      28    3.2      194.3  -51.6   14.1  146.0   -5.3    66.2
 00 JAN 23  23:22:00:00     351    3.6      28    2.6      194.3  -51.5   14.1  146.0   -5.3    65.6
 00 JAN 23  23:23:00:00     363    4.2      30    2.2      194.3  -51.3   14.1  146.0   -5.3    65.1
 00 JAN 24  24:00:00:00     365    5.4      33    2.4      194.3  -51.2   14.2  146.0   -5.3    64.5
 00 JAN 24  24:01:00:00     362    5.0      31    2.1      194.3  -51.1   14.2  146.0   -5.3    64.0
 00 JAN 24  24:02:00:00     366    3.9      30    0.6      194.3  -50.9   14.2  146.0   -5.3    63.4
 00 JAN 24  24:03:00:00     378    3.6      30    0.2      194.2  -50.8   14.2  146.0   -5.3    62.9
 00 JAN 24  24:04:00:00     377    2.1      27    1.3      194.2  -50.7   14.2  146.0   -5.3    62.3
 00 JAN 24  24:05:00:00     389    3.4      28    1.0      194.2  -50.5   14.2  146.0   -5.3    61.8
 00 JAN 24  24:06:00:00     387    5.3      27    0.1      194.2  -50.4   14.3  146.0   -5.3    61.2
 00 JAN 24  24:07:00:00     381    5.1      28   -0.2      194.2  -50.3   14.3  146.0   -5.3    60.7
 00 JAN 24  24:08:00:00     382    4.8      29    2.0      194.2  -50.1   14.3  146.0   -5.4    60.1
 00 JAN 24  24:09:00:00     396    5.1      35    2.0      194.2  -50.0   14.3  146.0   -5.4    59.6
 00 JAN 24  24:10:00:00     399    4.4      33    0.9      194.2  -49.8   14.3  146.0   -5.4    59.0
 00 JAN 24  24:11:00:00     402    4.8      33    0.7      194.2  -49.7   14.3  146.0   -5.4    58.5
 00 JAN 24  24:12:00:00     386    4.5      30    0.5      194.2  -49.6   14.4  146.0   -5.4    57.9
 00 JAN 24  24:13:00:00     370    4.9      28    0.3      194.2  -49.4   14.4  146.0   -5.4    57.4
 00 JAN 24  24:14:00:00     377    5.0      28    0.1      194.2  -49.3   14.4  146.0   -5.4    56.8
 00 JAN 24  24:15:00:00     370    5.7      26    0.2      194.2  -49.2   14.4  146.0   -5.4    56.3
 00 JAN 24  24:16:00:00     375    5.6      28    0.6      194.2  -49.0   14.4  146.0   -5.4    55.7
 00 JAN 24  24:17:00:00     372    5.4      29   -0.8      194.2  -48.9   14.4  146.0   -5.4    55.2
 00 JAN 24  24:18:00:00     371    6.1      30   -1.1      194.2  -48.7   14.5  146.0   -5.4    54.6
 00 JAN 24  24:19:00:00     359    6.3      24    1.5      194.2  -48.6   14.5  146.0   -5.4    54.1
 00 JAN 24  24:20:00:00     361    5.9      28    0.1      194.2  -48.5   14.5  146.0   -5.4    53.5
 00 JAN 24  24:21:00:00     359    6.4      27   -0.3      194.2  -48.3   14.5  146.0   -5.4    53.0
 00 JAN 24  24:22:00:00     371    6.4      31   -1.6      194.2  -48.2   14.5  146.0   -5.4    52.4
 00 JAN 24  24:23:00:00     338    5.9      24   -2.7      194.1  -48.0   14.5  146.0   -5.4    51.9
 00 JAN 25  25:00:00:00     340    7.2      24   -3.3      194.1  -47.9   14.5  146.0   -5.4    51.3
 00 JAN 25  25:01:00:00     343    7.4      26   -3.2      194.1  -47.8   14.6  146.0   -5.4    50.8
 00 JAN 25  25:02:00:00     344    8.0      26   -3.3      194.1  -47.6   14.6  146.0   -5.4    50.2
 00 JAN 25  25:03:00:00     339    9.7      24   -4.0      194.1  -47.5   14.6  146.0   -5.4    49.7
 00 JAN 25  25:04:00:00     339    8.9      24   -3.7      194.1  -47.3   14.6  146.0   -5.4    49.1
 00 JAN 25  25:05:00:00     337   12.4      23   -4.0      194.1  -47.2   14.6  146.0   -5.4    48.6
 00 JAN 25  25:06:00:00     338   13.2      23   -4.3      194.1  -47.1   14.6  146.0   -5.4    48.0
 00 JAN 25  25:07:00:00     339   12.7      23   -4.0      194.1  -46.9   14.7  146.0   -5.4    47.5
 00 JAN 25  25:08:00:00     333   12.2      23   -3.8      194.1  -46.8   14.7  146.0   -5.4    46.9
 00 JAN 25  25:09:00:00     335    9.3      23   -3.0      194.1  -46.6   14.7  146.0   -5.4    46.4
 00 JAN 25  25:10:00:00     337    7.6      24   -2.2      194.1  -46.5   14.7  146.0   -5.4    45.8
 00 JAN 25  25:11:00:00     336    8.5      24   -2.9      194.1  -46.3   14.7  146.0   -5.4    45.3
 00 JAN 25  25:12:00:00     332    9.7      23   -3.3      194.1  -46.2   14.7  146.0   -5.4    44.7
 00 JAN 25  25:13:00:00     332    8.0      24   -2.5      194.1  -46.1   14.8  146.0   -5.5    44.2
 00 JAN 25  25:14:00:00     337    6.4      24   -1.3      194.1  -45.9   14.8  146.0   -5.5    43.6
 00 JAN 25  25:15:00:00     340    6.9      25   -0.9      194.1  -45.8   14.8  146.0   -5.5    43.1
 00 JAN 25  25:16:00:00     338    9.4      24   -3.1      194.1  -45.6   14.8  146.0   -5.5    42.5
 00 JAN 25  25:17:00:00     343   12.1      25   -3.5      194.1  -45.5   14.8  146.0   -5.5    42.0
 00 JAN 25  25:18:00:00     338    9.6      25   -2.1      194.1  -45.3   14.8  146.0   -5.5    41.4
 00 JAN 25  25:19:00:00     348    8.6      26   -0.7      194.1  -45.2   14.8  146.0   -5.5    40.9
 00 JAN 25  25:20:00:00     351    8.3      24   -1.0      194.1  -45.1   14.9  146.0   -5.5    40.3
 00 JAN 25  25:21:00:00     347    8.3      25   -1.3      194.1  -44.9   14.9  146.0   -5.5    39.8
 00 JAN 25  25:22:00:00     344    9.3      26   -2.4      194.1  -44.8   14.9  146.0   -5.5    39.2
 00 JAN 25  25:23:00:00     349    9.9      28   -2.7      194.1  -44.6   14.9  146.0   -5.5    38.7
 00 JAN 26  26:00:00:00     344   10.8      25   -3.0      194.1  -44.5   14.9  146.0   -5.5    38.1
 00 JAN 26  26:01:00:00     360   11.0      33   -2.7      194.1  -44.3   14.9  146.0   -5.5    37.6
 00 JAN 26  26:02:00:00     359   10.8      32   -2.6      194.1  -44.2   14.9  146.0   -5.5    37.0
 00 JAN 26  26:03:00:00     369    8.5      35   -2.3      194.1  -44.1   15.0  146.0   -5.5    36.5
 00 JAN 26  26:04:00:00     373    7.4      37   -1.5      194.1  -43.9   15.0  146.0   -5.5    35.9
 00 JAN 26  26:05:00:00     376    7.4      33   -1.1      194.1  -43.8   15.0  146.0   -5.5    35.4
 00 JAN 26  26:06:00:00     372    7.4      31   -0.5      194.1  -43.6   15.0  146.0   -5.5    34.8
 00 JAN 26  26:07:00:00     374    7.2      32   -0.2      194.1  -43.5   15.0  146.0   -5.5    34.3
 00 JAN 26  26:08:00:00     363    6.7      33    0.2      194.1  -43.3   15.0  146.0   -5.5    33.7
 00 JAN 26  26:09:00:00     362    7.5      32    0.0      194.0  -43.2   15.0  146.0   -5.5    33.2
 00 JAN 26  26:10:00:00     361    7.0      32   -0.2      194.0  -43.0   15.1  146.0   -5.5    32.6
 00 JAN 26  26:11:00:00     363    7.5      33   -0.3      194.0  -42.9   15.1  146.0   -5.5    32.1
 00 JAN 26  26:12:00:00     360    7.8      33    0.2      194.0  -42.7   15.1  146.1   -5.5    31.5
 00 JAN 26  26:13:00:00     353    8.5      31    1.0      194.0  -42.6   15.1  146.1   -5.5    31.0
 00 JAN 26  26:14:00:00     352    8.2      29    0.2      194.0  -42.4   15.1  146.1   -5.5    30.4
 00 JAN 26  26:15:00:00     348    8.0      29    0.4      194.0  -42.3   15.1  146.1   -5.5    29.9
 00 JAN 26  26:16:00:00     340    9.8      27    1.4      194.0  -42.2   15.1  146.1   -5.5    29.3
 00 JAN 26  26:17:00:00     343    9.1      27    1.7      194.0  -42.0   15.2  146.1   -5.5    28.8
 00 JAN 26  26:18:00:00     349    8.8      29    1.2      194.0  -41.9   15.2  146.1   -5.5    28.2
 00 JAN 26  26:19:00:00     352    8.8      30    0.6      194.0  -41.7   15.2  146.1   -5.6    27.7
 00 JAN 26  26:20:00:00     357   11.0      29   -0.8      194.0  -41.6   15.2  146.1   -5.6    27.1
 00 JAN 26  26:21:00:00     354   11.5      27   -1.2      194.0  -41.4   15.2  146.1   -5.6    26.6
 00 JAN 26  26:22:00:00     354   12.4      27   -1.0      194.0  -41.3   15.2  146.1   -5.6    26.0
 00 JAN 26  26:23:00:00     362   12.9      29    0.1      194.0  -41.1   15.2  146.1   -5.6    25.5
 00 JAN 27  27:00:00:00     362   12.6      32    1.1      194.0  -41.0   15.3  146.1   -5.6    24.9
 00 JAN 27  27:01:00:00     352   15.7      28    3.5      194.0  -40.8   15.3  146.1   -5.6    24.4
 00 JAN 27  27:02:00:00     359   14.8      29    1.4      194.0  -40.7   15.3  146.1   -5.6    23.8
 00 JAN 27  27:03:00:00     355   14.7      28    0.2      194.0  -40.5   15.3  146.1   -5.6    23.3
 00 JAN 27  27:04:00:00     352   14.0      28    1.5      194.0  -40.4   15.3  146.1   -5.6    22.7
 00 JAN 27  27:05:00:00     362   16.3      29    1.6      194.0  -40.2   15.3  146.1   -5.6    22.1
 00 JAN 27  27:06:00:00     373   20.0      29    1.7      194.0  -40.1   15.3  146.1   -5.6    21.6
 00 JAN 27  27:07:00:00     373   22.5      28    2.3      194.0  -39.9   15.3  146.1   -5.6    21.0
 00 JAN 27  27:08:00:00     373   18.8      29    0.7      194.0  -39.8   15.4  146.1   -5.6    20.5
 00 JAN 27  27:09:00:00     372   19.9      30    1.6      194.0  -39.6   15.4  146.1   -5.6    19.9
 00 JAN 27  27:10:00:00     351   22.4      26    3.0      194.0  -39.5   15.4  146.1   -5.6    19.4
 00 JAN 27  27:11:00:00     340   15.6      23    2.3      194.0  -39.3   15.4  146.1   -5.6    18.8
 00 JAN 27  27:12:00:00     337   18.8      24    2.6      194.0  -39.2   15.4  146.1   -5.6    18.3
 00 JAN 27  27:13:00:00     336   30.8      23    4.4      194.0  -39.0   15.4  146.1   -5.6    17.7
 00 JAN 27  27:14:00:00     372   53.4      27    4.7      194.0  -38.9   15.4  146.1   -5.6    17.2
 00 JAN 27  27:15:00:00     377   48.5      26    2.4      194.0  -38.7   15.5  146.1   -5.6    16.6
 00 JAN 27  27:16:00:00     394   40.9      30    2.9      194.0  -38.6   15.5  146.1   -5.6    16.1
 00 JAN 27  27:17:00:00     424   39.9      35    0.7      194.0  -38.4   15.5  146.1   -5.6    15.5
 00 JAN 27  27:18:00:00     437   39.0      36   -1.4      194.0  -38.3   15.5  146.1   -5.6    15.0
 00 JAN 27  27:19:00:00     499   18.4      65   -1.1      194.0  -38.1   15.5  146.1   -5.6    14.4
 00 JAN 27  27:20:00:00     552   15.3      82   -0.7      194.0  -38.0   15.5  146.1   -5.6    13.9
 00 JAN 27  27:21:00:00     566   13.6      83   -0.1      194.0  -37.8   15.5  146.1   -5.6    13.3
 00 JAN 27  27:22:00:00     596   13.1      82   -0.4      194.0  -37.7   15.5  146.1   -5.6    12.8
 00 JAN 27  27:23:00:00     630    9.9      82   -1.1      194.0  -37.5   15.6  146.1   -5.6    12.2
 00 JAN 28  28:00:00:00     658    7.7      77   -0.1      194.0  -37.4   15.6  146.1   -5.6    11.7
 00 JAN 28  28:01:00:00     676    5.6      73   -0.7      194.0  -37.2   15.6  146.1   -5.7    11.1
 00 JAN 28  28:02:00:00     680    6.0      69    0.4      194.0  -37.1   15.6  146.1   -5.7    10.6
 00 JAN 28  28:03:00:00     665    5.6      74    0.4      194.0  -36.9   15.6  146.1   -5.7    10.0
 00 JAN 28  28:04:00:00     684    4.5      69   -0.6      194.0  -36.8   15.6  146.1   -5.7     9.5
 00 JAN 28  28:05:00:00     689    4.3      64   -0.9      194.0  -36.6   15.6  146.1   -5.7     8.9
 00 JAN 28  28:06:00:00     677    4.4      68   -1.1      194.0  -36.4   15.6  146.1   -5.7     8.4
 00 JAN 28  28:07:00:00     689    4.5      66   -0.9      194.0  -36.3   15.6  146.1   -5.7     7.8
 00 JAN 28  28:08:00:00     684    3.7      66   -1.4      194.0  -36.1   15.7  146.1   -5.7     7.3
 00 JAN 28  28:09:00:00     694    2.6      66   -0.8      194.0  -36.0   15.7  146.1   -5.7     6.7
 00 JAN 28  28:10:00:00     704    2.7      65    1.3      194.0  -35.8   15.7  146.1   -5.7     6.2
 00 JAN 28  28:11:00:00     718    2.6      65    0.3      194.0  -35.7   15.7  146.1   -5.7     5.6
 00 JAN 28  28:12:00:00     720    2.4      64    0.9      194.0  -35.5   15.7  146.1   -5.7     5.1
 00 JAN 28  28:13:00:00     713    2.2      63   -0.8      194.0  -35.4   15.7  146.1   -5.7     4.5
 00 JAN 28  28:14:00:00     696    2.5      62   -0.3      194.0  -35.2   15.7  146.1   -5.7     4.0
 00 JAN 28  28:15:00:00     723    2.2      64    0.3      194.0  -35.1   15.7  146.1   -5.7     3.4
 00 JAN 28  28:16:00:00     747    2.3      63    0.7      194.0  -34.9   15.8  146.1   -5.7     2.9
 00 JAN 28  28:17:00:00     739    2.3      64   -0.9      194.0  -34.7   15.8  146.1   -5.7     2.3
 00 JAN 28  28:18:00:00     729    2.5      62   -1.6      194.0  -34.6   15.8  146.1   -5.7     1.8
 00 JAN 28  28:19:00:00     770    2.6      57   -1.9      194.0  -34.4   15.8  146.1   -5.7     1.2
 00 JAN 28  28:20:00:00     773    2.9      56   -0.1      194.0  -34.3   15.8  146.1   -5.7     0.7
 00 JAN 28  28:21:00:00     750    2.7      61    0.4      194.0  -34.1   15.8  146.1   -5.7     0.1
 00 JAN 28  28:22:00:00     757    2.9      59    0.5      194.1  -34.0   15.8  146.1   -5.7   359.6